sensor_id;sensor_type;location;lat;lon;timestamp;temperature;humidity
73586;DHT22;61865;50.232;18.614;2023-03-01T00:00:12;-2.80;99.90
73586;DHT22;61865;50.232;18.614;2023-03-01T00:02:35;-2.90;99.90
73586;DHT22;61865;50.232;18.614;2023-03-01T00:04:58;-3.00;99.90
73586;DHT22;61865;50.232;18.614;2023-03-01T00:07:20;-3.10;99.90
73586;DHT22;61865;50.232;18.614;2023-03-01T00:09:42;-3.10;99.90
73586;DHT22;61865;50.232;18.614;2023-03-01T00:12:06;-3.30;99.90
73586;DHT22;61865;50.232;18.614;2023-03-01T00:14:28;-3.50;99.90
73586;DHT22;61865;50.232;18.614;2023-03-01T00:16:50;-3.80;99.90
73586;DHT22;61865;50.232;18.614;2023-03-01T00:19:14;-3.90;99.90
73586;DHT22;61865;50.232;18.614;2023-03-01T00:21:37;-3.90;99.90
73586;DHT22;61865;50.232;18.614;2023-03-01T00:24:01;-3.90;99.90
73586;DHT22;61865;50.232;18.614;2023-03-01T00:26:24;-3.90;99.90
73586;DHT22;61865;50.232;18.614;2023-03-01T00:28:47;-3.90;99.90
73586;DHT22;61865;50.232;18.614;2023-03-01T00:31:10;-3.90;99.90
73586;DHT22;61865;50.232;18.614;2023-03-01T00:33:33;-4.00;99.90
73586;DHT22;61865;50.232;18.614;2023-03-01T00:35:57;-4.20;99.90
73586;DHT22;61865;50.232;18.614;2023-03-01T00:38:20;-4.50;99.90
73586;DHT22;61865;50.232;18.614;2023-03-01T00:40:42;-4.60;99.90
73586;DHT22;61865;50.232;18.614;2023-03-01T00:43:06;-4.60;99.90
73586;DHT22;61865;50.232;18.614;2023-03-01T00:45:28;-4.50;99.90
73586;DHT22;61865;50.232;18.614;2023-03-01T00:47:51;-4.50;99.90
73586;DHT22;61865;50.232;18.614;2023-03-01T00:50:13;-4.70;99.90
73586;DHT22;61865;50.232;18.614;2023-03-01T00:52:35;-4.60;99.90
73586;DHT22;61865;50.232;18.614;2023-03-01T00:54:59;-4.70;99.90
73586;DHT22;61865;50.232;18.614;2023-03-01T00:57:21;-4.80;99.90
73586;DHT22;61865;50.232;18.614;2023-03-01T00:59:42;-5.00;99.90
73586;DHT22;61865;50.232;18.614;2023-03-01T01:02:04;-5.10;99.90
73586;DHT22;61865;50.232;18.614;2023-03-01T01:04:26;-5.10;99.90
73586;DHT22;61865;50.232;18.614;2023-03-01T01:06:48;-5.10;99.90
73586;DHT22;61865;50.232;18.614;2023-03-01T01:09:13;-5.10;99.90
73586;DHT22;61865;50.232;18.614;2023-03-01T01:11:39;-4.90;99.90
73586;DHT22;61865;50.232;18.614;2023-03-01T01:14:01;-4.80;99.90
73586;DHT22;61865;50.232;18.614;2023-03-01T01:16:25;-4.80;99.90
73586;DHT22;61865;50.232;18.614;2023-03-01T01:18:47;-4.70;99.90
73586;DHT22;61865;50.232;18.614;2023-03-01T01:21:11;-4.70;99.90
73586;DHT22;61865;50.232;18.614;2023-03-01T01:23:33;-4.80;99.90
73586;DHT22;61865;50.232;18.614;2023-03-01T01:25:55;-5.00;99.90
73586;DHT22;61865;50.232;18.614;2023-03-01T01:28:18;-5.20;99.90
73586;DHT22;61865;50.232;18.614;2023-03-01T01:30:40;-5.30;99.90
73586;DHT22;61865;50.232;18.614;2023-03-01T01:33:02;-5.20;99.90
73586;DHT22;61865;50.232;18.614;2023-03-01T01:35:24;-5.20;99.90
73586;DHT22;61865;50.232;18.614;2023-03-01T01:37:46;-5.10;99.90
73586;DHT22;61865;50.232;18.614;2023-03-01T01:40:10;-5.10;99.90
73586;DHT22;61865;50.232;18.614;2023-03-01T01:42:32;-5.10;99.90
73586;DHT22;61865;50.232;18.614;2023-03-01T01:45:26;-5.10;99.90
73586;DHT22;61865;50.232;18.614;2023-03-01T01:47:49;-5.00;99.90
73586;DHT22;61865;50.232;18.614;2023-03-01T01:50:18;-4.90;99.90
73586;DHT22;61865;50.232;18.614;2023-03-01T01:52:40;-4.90;99.90
73586;DHT22;61865;50.232;18.614;2023-03-01T01:55:06;-4.90;99.90
73586;DHT22;61865;50.232;18.614;2023-03-01T01:57:32;-5.00;99.90
73586;DHT22;61865;50.232;18.614;2023-03-01T01:59:58;-5.20;99.90
73586;DHT22;61865;50.232;18.614;2023-03-01T02:02:23;-5.30;99.90
73586;DHT22;61865;50.232;18.614;2023-03-01T02:04:46;-5.40;99.90
73586;DHT22;61865;50.232;18.614;2023-03-01T02:07:13;-5.60;99.90
73586;DHT22;61865;50.232;18.614;2023-03-01T02:09:36;-5.80;99.90
73586;DHT22;61865;50.232;18.614;2023-03-01T02:12:02;-5.80;99.90
73586;DHT22;61865;50.232;18.614;2023-03-01T02:14:25;-5.90;99.90
73586;DHT22;61865;50.232;18.614;2023-03-01T02:16:48;-5.90;99.90
73586;DHT22;61865;50.232;18.614;2023-03-01T02:19:19;-6.10;99.90
73586;DHT22;61865;50.232;18.614;2023-03-01T02:21:48;-6.10;99.90
73586;DHT22;61865;50.232;18.614;2023-03-01T02:24:19;-6.10;99.90
73586;DHT22;61865;50.232;18.614;2023-03-01T02:26:48;-6.10;99.90
73586;DHT22;61865;50.232;18.614;2023-03-01T02:29:13;-6.10;99.90
73586;DHT22;61865;50.232;18.614;2023-03-01T02:31:35;-6.00;99.90
73586;DHT22;61865;50.232;18.614;2023-03-01T02:34:06;-6.10;99.90
73586;DHT22;61865;50.232;18.614;2023-03-01T02:36:31;-6.30;99.90
73586;DHT22;61865;50.232;18.614;2023-03-01T02:38:57;-6.40;99.90
73586;DHT22;61865;50.232;18.614;2023-03-01T02:41:20;-6.40;99.90
73586;DHT22;61865;50.232;18.614;2023-03-01T02:43:44;-6.40;99.90
73586;DHT22;61865;50.232;18.614;2023-03-01T02:46:13;-6.30;99.90
73586;DHT22;61865;50.232;18.614;2023-03-01T02:48:43;-6.10;99.90
73586;DHT22;61865;50.232;18.614;2023-03-01T02:51:14;-5.90;99.90
73586;DHT22;61865;50.232;18.614;2023-03-01T02:53:44;-5.90;99.90
73586;DHT22;61865;50.232;18.614;2023-03-01T02:56:07;-5.90;99.90
73586;DHT22;61865;50.232;18.614;2023-03-01T02:58:33;-5.60;99.90
73586;DHT22;61865;50.232;18.614;2023-03-01T03:01:07;-5.60;99.90
73586;DHT22;61865;50.232;18.614;2023-03-01T03:03:30;-5.40;99.90
73586;DHT22;61865;50.232;18.614;2023-03-01T03:05:52;-5.30;99.90
73586;DHT22;61865;50.232;18.614;2023-03-01T03:08:14;-5.30;99.90
73586;DHT22;61865;50.232;18.614;2023-03-01T03:10:44;-5.20;99.90
73586;DHT22;61865;50.232;18.614;2023-03-01T03:13:08;-5.20;99.90
73586;DHT22;61865;50.232;18.614;2023-03-01T03:15:30;-5.10;99.90
73586;DHT22;61865;50.232;18.614;2023-03-01T03:17:58;-5.00;99.90
73586;DHT22;61865;50.232;18.614;2023-03-01T03:20:22;-5.00;99.90
73586;DHT22;61865;50.232;18.614;2023-03-01T03:22:45;-5.00;99.90
73586;DHT22;61865;50.232;18.614;2023-03-01T03:25:08;-5.00;99.90
73586;DHT22;61865;50.232;18.614;2023-03-01T03:27:31;-5.10;99.90
73586;DHT22;61865;50.232;18.614;2023-03-01T03:29:53;-5.10;99.90
73586;DHT22;61865;50.232;18.614;2023-03-01T03:32:15;-5.10;99.90
73586;DHT22;61865;50.232;18.614;2023-03-01T03:34:38;-5.00;99.90
73586;DHT22;61865;50.232;18.614;2023-03-01T03:37:00;-4.90;99.90
73586;DHT22;61865;50.232;18.614;2023-03-01T03:39:22;-5.00;99.90
73586;DHT22;61865;50.232;18.614;2023-03-01T03:41:44;-5.00;99.90
73586;DHT22;61865;50.232;18.614;2023-03-01T03:44:06;-5.00;99.90
73586;DHT22;61865;50.232;18.614;2023-03-01T03:46:28;-5.10;99.90
73586;DHT22;61865;50.232;18.614;2023-03-01T03:48:50;-5.10;99.90
73586;DHT22;61865;50.232;18.614;2023-03-01T03:51:15;-5.20;99.90
73586;DHT22;61865;50.232;18.614;2023-03-01T03:53:37;-5.30;99.90
73586;DHT22;61865;50.232;18.614;2023-03-01T03:55:59;-5.60;99.90
73586;DHT22;61865;50.232;18.614;2023-03-01T03:58:23;-5.80;99.90
73586;DHT22;61865;50.232;18.614;2023-03-01T04:00:47;-6.00;99.90
73586;DHT22;61865;50.232;18.614;2023-03-01T04:03:12;-6.00;99.90
73586;DHT22;61865;50.232;18.614;2023-03-01T04:05:35;-5.90;99.90
73586;DHT22;61865;50.232;18.614;2023-03-01T04:07:59;-5.80;99.90
73586;DHT22;61865;50.232;18.614;2023-03-01T04:10:28;-5.70;99.90
73586;DHT22;61865;50.232;18.614;2023-03-01T04:12:50;-5.60;99.90
73586;DHT22;61865;50.232;18.614;2023-03-01T04:15:13;-5.70;99.90
73586;DHT22;61865;50.232;18.614;2023-03-01T04:17:35;-6.00;99.90
73586;DHT22;61865;50.232;18.614;2023-03-01T04:19:56;-6.20;99.90
73586;DHT22;61865;50.232;18.614;2023-03-01T04:22:19;-6.20;99.90
73586;DHT22;61865;50.232;18.614;2023-03-01T04:24:42;-6.10;99.90
73586;DHT22;61865;50.232;18.614;2023-03-01T04:27:04;-5.90;99.90
73586;DHT22;61865;50.232;18.614;2023-03-01T04:29:27;-5.90;99.90
73586;DHT22;61865;50.232;18.614;2023-03-01T04:31:48;-6.00;99.90
73586;DHT22;61865;50.232;18.614;2023-03-01T04:34:10;-6.10;99.90
73586;DHT22;61865;50.232;18.614;2023-03-01T04:36:34;-6.20;99.90
73586;DHT22;61865;50.232;18.614;2023-03-01T04:38:56;-6.10;99.90
73586;DHT22;61865;50.232;18.614;2023-03-01T04:41:21;-6.10;99.90
73586;DHT22;61865;50.232;18.614;2023-03-01T04:43:43;-6.10;99.90
73586;DHT22;61865;50.232;18.614;2023-03-01T04:46:07;-6.10;99.90
73586;DHT22;61865;50.232;18.614;2023-03-01T04:48:30;-6.20;99.90
73586;DHT22;61865;50.232;18.614;2023-03-01T04:50:52;-6.30;99.90
73586;DHT22;61865;50.232;18.614;2023-03-01T04:53:14;-6.20;99.90
73586;DHT22;61865;50.232;18.614;2023-03-01T04:55:36;-6.20;99.90
73586;DHT22;61865;50.232;18.614;2023-03-01T04:57:59;-6.30;99.90
73586;DHT22;61865;50.232;18.614;2023-03-01T05:00:22;-6.50;99.90
73586;DHT22;61865;50.232;18.614;2023-03-01T05:02:44;-6.40;99.90
73586;DHT22;61865;50.232;18.614;2023-03-01T05:05:06;-6.20;99.90
73586;DHT22;61865;50.232;18.614;2023-03-01T05:07:28;-6.20;99.90
73586;DHT22;61865;50.232;18.614;2023-03-01T05:09:50;-6.20;99.90
73586;DHT22;61865;50.232;18.614;2023-03-01T05:12:12;-6.30;99.90
73586;DHT22;61865;50.232;18.614;2023-03-01T05:14:35;-6.40;99.90
73586;DHT22;61865;50.232;18.614;2023-03-01T05:16:59;-6.60;99.90
73586;DHT22;61865;50.232;18.614;2023-03-01T05:19:24;-6.70;99.90
73586;DHT22;61865;50.232;18.614;2023-03-01T05:21:47;-6.90;99.90
73586;DHT22;61865;50.232;18.614;2023-03-01T05:24:25;-6.90;99.90
73586;DHT22;61865;50.232;18.614;2023-03-01T05:26:48;-6.80;99.90
73586;DHT22;61865;50.232;18.614;2023-03-01T05:29:12;-6.60;99.90
73586;DHT22;61865;50.232;18.614;2023-03-01T05:31:35;-6.70;99.90
73586;DHT22;61865;50.232;18.614;2023-03-01T05:33:58;-6.80;99.90
73586;DHT22;61865;50.232;18.614;2023-03-01T05:36:20;-6.80;99.90
73586;DHT22;61865;50.232;18.614;2023-03-01T05:38:42;-6.90;99.90
73586;DHT22;61865;50.232;18.614;2023-03-01T05:41:04;-7.00;99.90
73586;DHT22;61865;50.232;18.614;2023-03-01T05:43:30;-7.00;99.90
73586;DHT22;61865;50.232;18.614;2023-03-01T05:45:57;-6.90;99.90
73586;DHT22;61865;50.232;18.614;2023-03-01T05:48:21;-6.90;99.90
73586;DHT22;61865;50.232;18.614;2023-03-01T05:50:44;-6.90;99.90
73586;DHT22;61865;50.232;18.614;2023-03-01T05:53:10;-7.00;99.90
73586;DHT22;61865;50.232;18.614;2023-03-01T05:55:33;-7.00;99.90
73586;DHT22;61865;50.232;18.614;2023-03-01T05:57:57;-7.10;99.90
73586;DHT22;61865;50.232;18.614;2023-03-01T06:00:20;-7.00;99.90
73586;DHT22;61865;50.232;18.614;2023-03-01T06:02:44;-7.00;99.90
73586;DHT22;61865;50.232;18.614;2023-03-01T06:05:09;-6.90;99.90
73586;DHT22;61865;50.232;18.614;2023-03-01T06:07:31;-6.60;99.90
73586;DHT22;61865;50.232;18.614;2023-03-01T06:09:53;-6.20;99.90
73586;DHT22;61865;50.232;18.614;2023-03-01T06:12:15;-6.00;99.90
73586;DHT22;61865;50.232;18.614;2023-03-01T06:14:37;-5.90;99.90
73586;DHT22;61865;50.232;18.614;2023-03-01T06:16:59;-5.80;99.90
73586;DHT22;61865;50.232;18.614;2023-03-01T06:19:21;-5.60;99.90
73586;DHT22;61865;50.232;18.614;2023-03-01T06:21:45;-5.50;99.90
73586;DHT22;61865;50.232;18.614;2023-03-01T06:24:07;-5.40;99.90
73586;DHT22;61865;50.232;18.614;2023-03-01T06:26:29;-5.20;99.90
73586;DHT22;61865;50.232;18.614;2023-03-01T06:28:51;-5.10;99.90
73586;DHT22;61865;50.232;18.614;2023-03-01T06:31:13;-5.10;99.90
73586;DHT22;61865;50.232;18.614;2023-03-01T06:33:35;-5.00;99.90
73586;DHT22;61865;50.232;18.614;2023-03-01T06:35:57;-4.90;99.90
73586;DHT22;61865;50.232;18.614;2023-03-01T06:38:21;-4.60;99.90
73586;DHT22;61865;50.232;18.614;2023-03-01T06:40:42;-4.50;99.90
73586;DHT22;61865;50.232;18.614;2023-03-01T06:43:05;-4.40;99.90
73586;DHT22;61865;50.232;18.614;2023-03-01T06:45:27;-4.30;99.90
73586;DHT22;61865;50.232;18.614;2023-03-01T06:47:49;-4.20;99.90
73586;DHT22;61865;50.232;18.614;2023-03-01T06:50:13;-4.00;99.90
73586;DHT22;61865;50.232;18.614;2023-03-01T06:52:35;-3.80;99.90
73586;DHT22;61865;50.232;18.614;2023-03-01T06:54:59;-3.60;99.90
73586;DHT22;61865;50.232;18.614;2023-03-01T06:57:21;-3.60;99.90
73586;DHT22;61865;50.232;18.614;2023-03-01T06:59:43;-3.40;99.90
73586;DHT22;61865;50.232;18.614;2023-03-01T07:02:05;-3.30;99.90
73586;DHT22;61865;50.232;18.614;2023-03-01T07:04:27;-3.20;99.90
73586;DHT22;61865;50.232;18.614;2023-03-01T07:06:51;-3.10;99.90
73586;DHT22;61865;50.232;18.614;2023-03-01T07:09:15;-2.90;99.90
73586;DHT22;61865;50.232;18.614;2023-03-01T07:11:41;-2.80;99.90
73586;DHT22;61865;50.232;18.614;2023-03-01T07:14:03;-2.70;99.90
73586;DHT22;61865;50.232;18.614;2023-03-01T07:16:26;-2.70;99.90
73586;DHT22;61865;50.232;18.614;2023-03-01T07:18:48;-2.60;99.90
73586;DHT22;61865;50.232;18.614;2023-03-01T07:21:13;-2.50;99.90
73586;DHT22;61865;50.232;18.614;2023-03-01T07:23:36;-2.30;99.90
73586;DHT22;61865;50.232;18.614;2023-03-01T07:25:58;-2.10;99.90
73586;DHT22;61865;50.232;18.614;2023-03-01T07:28:22;-2.10;99.90
73586;DHT22;61865;50.232;18.614;2023-03-01T07:30:44;-2.00;99.90
73586;DHT22;61865;50.232;18.614;2023-03-01T07:33:06;-1.90;99.90
73586;DHT22;61865;50.232;18.614;2023-03-01T07:35:28;-1.80;99.90
73586;DHT22;61865;50.232;18.614;2023-03-01T07:37:50;-1.70;99.90
73586;DHT22;61865;50.232;18.614;2023-03-01T07:40:13;-1.70;99.90
73586;DHT22;61865;50.232;18.614;2023-03-01T07:42:34;-1.60;99.90
73586;DHT22;61865;50.232;18.614;2023-03-01T07:44:58;-1.60;99.90
73586;DHT22;61865;50.232;18.614;2023-03-01T07:47:21;-1.50;99.90
73586;DHT22;61865;50.232;18.614;2023-03-01T07:49:43;-1.40;99.90
73586;DHT22;61865;50.232;18.614;2023-03-01T07:52:05;-1.30;99.90
73586;DHT22;61865;50.232;18.614;2023-03-01T07:54:27;-1.30;99.90
73586;DHT22;61865;50.232;18.614;2023-03-01T07:56:49;-1.20;99.90
73586;DHT22;61865;50.232;18.614;2023-03-01T07:59:11;-1.20;99.90
73586;DHT22;61865;50.232;18.614;2023-03-01T08:01:35;-1.10;99.90
73586;DHT22;61865;50.232;18.614;2023-03-01T08:03:57;-1.00;99.90
73586;DHT22;61865;50.232;18.614;2023-03-01T08:06:19;-0.90;99.90
73586;DHT22;61865;50.232;18.614;2023-03-01T08:08:41;-0.80;99.90
73586;DHT22;61865;50.232;18.614;2023-03-01T08:11:05;-0.70;99.90
73586;DHT22;61865;50.232;18.614;2023-03-01T08:13:30;-0.60;99.90
73586;DHT22;61865;50.232;18.614;2023-03-01T08:15:52;-0.50;99.90
73586;DHT22;61865;50.232;18.614;2023-03-01T08:18:15;-0.40;99.90
73586;DHT22;61865;50.232;18.614;2023-03-01T08:20:37;-0.30;99.90
73586;DHT22;61865;50.232;18.614;2023-03-01T08:22:59;-0.20;99.90
73586;DHT22;61865;50.232;18.614;2023-03-01T08:25:22;-0.20;99.90
73586;DHT22;61865;50.232;18.614;2023-03-01T08:27:43;0.00;99.90
73586;DHT22;61865;50.232;18.614;2023-03-01T08:30:07;0.00;99.90
73586;DHT22;61865;50.232;18.614;2023-03-01T08:32:29;0.10;99.90
73586;DHT22;61865;50.232;18.614;2023-03-01T08:34:52;0.10;99.90
73586;DHT22;61865;50.232;18.614;2023-03-01T08:37:14;0.00;99.90
73586;DHT22;61865;50.232;18.614;2023-03-01T08:39:36;0.10;99.90
73586;DHT22;61865;50.232;18.614;2023-03-01T08:41:58;0.20;99.90
73586;DHT22;61865;50.232;18.614;2023-03-01T08:44:20;0.40;99.90
73586;DHT22;61865;50.232;18.614;2023-03-01T08:46:43;0.40;99.90
73586;DHT22;61865;50.232;18.614;2023-03-01T08:49:06;0.50;99.90
73586;DHT22;61865;50.232;18.614;2023-03-01T08:51:33;0.60;99.90
73586;DHT22;61865;50.232;18.614;2023-03-01T08:53:57;0.80;99.90
73586;DHT22;61865;50.232;18.614;2023-03-01T08:56:19;0.80;99.90
73586;DHT22;61865;50.232;18.614;2023-03-01T08:58:44;0.90;99.90
73586;DHT22;61865;50.232;18.614;2023-03-01T09:01:10;0.90;99.90
73586;DHT22;61865;50.232;18.614;2023-03-01T09:03:32;0.90;99.90
73586;DHT22;61865;50.232;18.614;2023-03-01T09:06:00;1.00;99.90
73586;DHT22;61865;50.232;18.614;2023-03-01T09:08:23;1.10;99.90
73586;DHT22;61865;50.232;18.614;2023-03-01T09:10:45;1.10;99.90
73586;DHT22;61865;50.232;18.614;2023-03-01T09:13:08;1.10;99.90
73586;DHT22;61865;50.232;18.614;2023-03-01T09:15:30;1.20;99.90
73586;DHT22;61865;50.232;18.614;2023-03-01T09:17:53;1.30;99.90
73586;DHT22;61865;50.232;18.614;2023-03-01T09:20:15;1.40;99.90
73586;DHT22;61865;50.232;18.614;2023-03-01T09:22:37;1.40;99.90
73586;DHT22;61865;50.232;18.614;2023-03-01T09:25:01;1.50;99.90
73586;DHT22;61865;50.232;18.614;2023-03-01T09:27:23;1.60;99.90
73586;DHT22;61865;50.232;18.614;2023-03-01T09:29:45;1.60;99.90
73586;DHT22;61865;50.232;18.614;2023-03-01T09:32:08;1.60;99.90
73586;DHT22;61865;50.232;18.614;2023-03-01T09:34:31;1.60;99.90
73586;DHT22;61865;50.232;18.614;2023-03-01T09:37:12;1.60;99.90
73586;DHT22;61865;50.232;18.614;2023-03-01T09:39:35;1.70;99.90
73586;DHT22;61865;50.232;18.614;2023-03-01T09:42:00;1.70;99.90
73586;DHT22;61865;50.232;18.614;2023-03-01T09:44:31;1.70;99.90
73586;DHT22;61865;50.232;18.614;2023-03-01T09:46:55;1.70;99.90
73586;DHT22;61865;50.232;18.614;2023-03-01T09:49:19;1.80;99.90
73586;DHT22;61865;50.232;18.614;2023-03-01T09:51:50;1.90;99.90
73586;DHT22;61865;50.232;18.614;2023-03-01T09:54:15;1.90;99.90
73586;DHT22;61865;50.232;18.614;2023-03-01T09:56:40;1.90;99.90
73586;DHT22;61865;50.232;18.614;2023-03-01T09:59:17;2.00;99.90
73586;DHT22;61865;50.232;18.614;2023-03-01T10:01:48;2.00;99.90
73586;DHT22;61865;50.232;18.614;2023-03-01T10:04:28;2.10;99.90
73586;DHT22;61865;50.232;18.614;2023-03-01T10:06:58;2.00;99.90
73586;DHT22;61865;50.232;18.614;2023-03-01T10:09:24;2.10;99.90
73586;DHT22;61865;50.232;18.614;2023-03-01T10:11:50;2.10;99.90
73586;DHT22;61865;50.232;18.614;2023-03-01T10:14:29;2.20;99.90
73586;DHT22;61865;50.232;18.614;2023-03-01T10:16:54;2.20;99.90
73586;DHT22;61865;50.232;18.614;2023-03-01T10:19:24;2.20;99.90
73586;DHT22;61865;50.232;18.614;2023-03-01T10:21:51;2.20;99.90
73586;DHT22;61865;50.232;18.614;2023-03-01T10:24:15;2.20;99.90
73586;DHT22;61865;50.232;18.614;2023-03-01T10:26:47;2.30;99.90
73586;DHT22;61865;50.232;18.614;2023-03-01T10:29:12;2.30;99.90
73586;DHT22;61865;50.232;18.614;2023-03-01T10:31:43;2.30;99.90
73586;DHT22;61865;50.232;18.614;2023-03-01T10:34:10;2.40;99.90
73586;DHT22;61865;50.232;18.614;2023-03-01T10:36:33;2.40;99.90
73586;DHT22;61865;50.232;18.614;2023-03-01T10:38:56;2.40;99.90
73586;DHT22;61865;50.232;18.614;2023-03-01T10:41:18;2.40;99.90
73586;DHT22;61865;50.232;18.614;2023-03-01T10:43:45;2.50;99.90
73586;DHT22;61865;50.232;18.614;2023-03-01T10:46:23;2.70;99.90
73586;DHT22;61865;50.232;18.614;2023-03-01T10:49:12;2.60;99.90
73586;DHT22;61865;50.232;18.614;2023-03-01T10:51:35;2.60;99.90
73586;DHT22;61865;50.232;18.614;2023-03-01T10:53:57;2.60;99.90
73586;DHT22;61865;50.232;18.614;2023-03-01T10:56:19;2.70;99.90
73586;DHT22;61865;50.232;18.614;2023-03-01T10:58:56;2.70;99.90
73586;DHT22;61865;50.232;18.614;2023-03-01T11:01:27;2.70;99.90
73586;DHT22;61865;50.232;18.614;2023-03-01T11:04:09;2.70;99.90
73586;DHT22;61865;50.232;18.614;2023-03-01T11:06:33;2.80;99.90
73586;DHT22;61865;50.232;18.614;2023-03-01T11:08:56;2.90;99.90
73586;DHT22;61865;50.232;18.614;2023-03-01T11:11:22;2.90;99.90
73586;DHT22;61865;50.232;18.614;2023-03-01T11:13:54;3.10;99.90
73586;DHT22;61865;50.232;18.614;2023-03-01T11:16:23;3.10;99.90
73586;DHT22;61865;50.232;18.614;2023-03-01T11:18:58;3.10;99.90
73586;DHT22;61865;50.232;18.614;2023-03-01T11:21:20;3.20;99.90
73586;DHT22;61865;50.232;18.614;2023-03-01T11:23:43;3.10;99.90
73586;DHT22;61865;50.232;18.614;2023-03-01T11:26:08;3.10;99.90
73586;DHT22;61865;50.232;18.614;2023-03-01T11:28:31;3.10;99.90
73586;DHT22;61865;50.232;18.614;2023-03-01T11:30:57;3.20;99.90
73586;DHT22;61865;50.232;18.614;2023-03-01T11:33:27;3.30;99.90
73586;DHT22;61865;50.232;18.614;2023-03-01T11:35:57;3.40;99.90
73586;DHT22;61865;50.232;18.614;2023-03-01T11:38:23;3.30;99.10
73586;DHT22;61865;50.232;18.614;2023-03-01T11:40:49;3.40;98.60
73586;DHT22;61865;50.232;18.614;2023-03-01T11:43:19;3.40;99.90
73586;DHT22;61865;50.232;18.614;2023-03-01T11:45:51;3.40;99.90
73586;DHT22;61865;50.232;18.614;2023-03-01T11:48:38;3.40;99.90
73586;DHT22;61865;50.232;18.614;2023-03-01T11:51:11;3.50;99.90
73586;DHT22;61865;50.232;18.614;2023-03-01T11:53:49;3.60;99.90
73586;DHT22;61865;50.232;18.614;2023-03-01T11:56:20;3.60;99.90
73586;DHT22;61865;50.232;18.614;2023-03-01T11:59:09;3.60;99.90
73586;DHT22;61865;50.232;18.614;2023-03-01T12:01:44;3.60;99.90
73586;DHT22;61865;50.232;18.614;2023-03-01T12:04:36;3.60;99.90
73586;DHT22;61865;50.232;18.614;2023-03-01T12:07:07;3.70;99.90
73586;DHT22;61865;50.232;18.614;2023-03-01T12:09:45;3.60;99.90
73586;DHT22;61865;50.232;18.614;2023-03-01T12:12:27;3.60;99.90
73586;DHT22;61865;50.232;18.614;2023-03-01T12:14:59;3.80;99.90
73586;DHT22;61865;50.232;18.614;2023-03-01T12:17:46;3.80;97.60
73586;DHT22;61865;50.232;18.614;2023-03-01T12:20:17;3.90;96.70
73586;DHT22;61865;50.232;18.614;2023-03-01T12:22:57;3.90;97.00
73586;DHT22;61865;50.232;18.614;2023-03-01T12:25:25;4.10;97.50
73586;DHT22;61865;50.232;18.614;2023-03-01T12:27:58;4.10;99.90
73586;DHT22;61865;50.232;18.614;2023-03-01T12:30:35;4.20;83.30
73586;DHT22;61865;50.232;18.614;2023-03-01T12:33:14;4.20;94.10
73586;DHT22;61865;50.232;18.614;2023-03-01T12:38:39;4.20;94.80
73586;DHT22;61865;50.232;18.614;2023-03-01T12:44:24;4.30;99.40
73586;DHT22;61865;50.232;18.614;2023-03-01T12:47:12;4.30;92.00
73586;DHT22;61865;50.232;18.614;2023-03-01T12:49:39;4.30;92.90
73586;DHT22;61865;50.232;18.614;2023-03-01T12:52:13;4.30;79.60
73586;DHT22;61865;50.232;18.614;2023-03-01T12:54:38;4.40;97.00
73586;DHT22;61865;50.232;18.614;2023-03-01T12:57:08;4.40;90.40
73586;DHT22;61865;50.232;18.614;2023-03-01T12:59:34;4.40;93.20
73586;DHT22;61865;50.232;18.614;2023-03-01T13:02:07;4.40;80.40
73586;DHT22;61865;50.232;18.614;2023-03-01T13:04:40;4.50;96.00
73586;DHT22;61865;50.232;18.614;2023-03-01T13:07:16;4.50;93.40
73586;DHT22;61865;50.232;18.614;2023-03-01T13:09:49;4.50;92.20
73586;DHT22;61865;50.232;18.614;2023-03-01T13:12:49;4.50;88.00
73586;DHT22;61865;50.232;18.614;2023-03-01T13:15:26;4.50;93.20
73586;DHT22;61865;50.232;18.614;2023-03-01T13:17:49;4.60;91.50
73586;DHT22;61865;50.232;18.614;2023-03-01T13:20:14;4.60;90.40
73586;DHT22;61865;50.232;18.614;2023-03-01T13:22:37;4.70;84.90
73586;DHT22;61865;50.232;18.614;2023-03-01T13:25:21;4.70;84.10
73586;DHT22;61865;50.232;18.614;2023-03-01T13:27:46;4.80;91.00
73586;DHT22;61865;50.232;18.614;2023-03-01T13:30:40;4.70;82.60
73586;DHT22;61865;50.232;18.614;2023-03-01T13:33:37;4.70;84.20
73586;DHT22;61865;50.232;18.614;2023-03-01T13:36:01;4.80;83.50
73586;DHT22;61865;50.232;18.614;2023-03-01T13:38:45;4.80;91.00
73586;DHT22;61865;50.232;18.614;2023-03-01T13:41:09;4.70;85.60
73586;DHT22;61865;50.232;18.614;2023-03-01T13:43:33;4.80;86.90
73586;DHT22;61865;50.232;18.614;2023-03-01T13:45:56;4.90;90.70
73586;DHT22;61865;50.232;18.614;2023-03-01T13:48:24;5.00;86.50
73586;DHT22;61865;50.232;18.614;2023-03-01T13:50:50;5.00;87.60
73586;DHT22;61865;50.232;18.614;2023-03-01T13:53:17;5.00;83.30
73586;DHT22;61865;50.232;18.614;2023-03-01T13:55:42;5.00;79.70
73586;DHT22;61865;50.232;18.614;2023-03-01T13:58:18;5.00;80.70
73586;DHT22;61865;50.232;18.614;2023-03-01T14:00:41;5.00;75.30
73586;DHT22;61865;50.232;18.614;2023-03-01T14:03:12;5.00;77.30
73586;DHT22;61865;50.232;18.614;2023-03-01T14:05:34;5.00;75.70
73586;DHT22;61865;50.232;18.614;2023-03-01T14:07:57;5.00;77.20
73586;DHT22;61865;50.232;18.614;2023-03-01T14:10:19;5.10;73.90
73586;DHT22;61865;50.232;18.614;2023-03-01T14:12:46;5.10;78.20
73586;DHT22;61865;50.232;18.614;2023-03-01T14:15:19;5.10;74.70
73586;DHT22;61865;50.232;18.614;2023-03-01T14:17:55;5.00;80.30
73586;DHT22;61865;50.232;18.614;2023-03-01T14:20:21;5.00;77.10
73586;DHT22;61865;50.232;18.614;2023-03-01T14:22:44;5.00;72.20
73586;DHT22;61865;50.232;18.614;2023-03-01T14:25:19;5.10;80.30
73586;DHT22;61865;50.232;18.614;2023-03-01T14:27:42;5.10;76.70
73586;DHT22;61865;50.232;18.614;2023-03-01T14:30:11;5.20;67.90
73586;DHT22;61865;50.232;18.614;2023-03-01T14:32:37;5.20;73.50
73586;DHT22;61865;50.232;18.614;2023-03-01T14:35:00;5.20;75.80
73586;DHT22;61865;50.232;18.614;2023-03-01T14:37:26;5.20;77.20
73586;DHT22;61865;50.232;18.614;2023-03-01T14:39:49;5.20;68.20
73586;DHT22;61865;50.232;18.614;2023-03-01T14:42:12;5.20;68.30
73586;DHT22;61865;50.232;18.614;2023-03-01T14:44:35;5.10;69.00
73586;DHT22;61865;50.232;18.614;2023-03-01T14:46:58;5.10;79.70
73586;DHT22;61865;50.232;18.614;2023-03-01T14:49:26;5.10;69.90
73586;DHT22;61865;50.232;18.614;2023-03-01T14:51:54;5.10;69.60
73586;DHT22;61865;50.232;18.614;2023-03-01T14:54:21;5.10;71.30
73586;DHT22;61865;50.232;18.614;2023-03-01T14:56:46;5.10;71.00
73586;DHT22;61865;50.232;18.614;2023-03-01T14:59:09;5.10;80.60
73586;DHT22;61865;50.232;18.614;2023-03-01T15:01:31;5.20;67.50
73586;DHT22;61865;50.232;18.614;2023-03-01T15:03:53;5.20;69.80
73586;DHT22;61865;50.232;18.614;2023-03-01T15:06:19;5.20;65.40
73586;DHT22;61865;50.232;18.614;2023-03-01T15:08:46;5.20;65.80
73586;DHT22;61865;50.232;18.614;2023-03-01T15:11:19;5.20;77.40
73586;DHT22;61865;50.232;18.614;2023-03-01T15:13:43;5.20;65.70
73586;DHT22;61865;50.232;18.614;2023-03-01T15:16:09;5.10;67.30
73586;DHT22;61865;50.232;18.614;2023-03-01T15:18:32;5.10;67.20